Time;durP1;ratioP1;P1;durP2;ratioP2;P2;SDS_P1;SDS_P2;PMS_P1;PMS_P2;Temp;Humidity;BMP_temperature;BMP_pressure;BME280_temperature;BME280_humidity;BME280_pressure;Samples;Min_cycle;Max_cycle;Signal;HPM_P1;HPM_P2
2022/08/27 00:00:24;;;;;;;8.77;2.77;;;21.60;99.90;;;;;;5019989;28;20468;-83
2022/08/27 00:02:51;;;;;;;8.20;3.47;;;21.60;99.90;;;;;;5006632;28;20466;-84
2022/08/27 00:05:20;;;;;;;5.33;2.43;;;21.60;99.90;;;;;;5016773;28;20454;-81
2022/08/27 00:07:48;;;;;;;6.53;2.53;;;21.40;99.90;;;;;;5015650;28;20472;-82
2022/08/27 00:10:19;;;;;;;8.70;2.50;;;21.30;99.90;;;;;;5019012;28;20491;-81
2022/08/27 00:12:47;;;;;;;12.37;3.33;;;21.10;99.90;;;;;;5028208;28;20877;-83
2022/08/27 00:15:14;;;;;;;6.67;2.80;;;21.00;99.90;;;;;;5005124;28;20514;-78
2022/08/27 00:17:44;;;;;;;7.10;3.20;;;21.00;99.90;;;;;;5006907;28;20561;-84
2022/08/27 00:20:13;;;;;;;7.50;3.10;;;20.90;99.90;;;;;;5024430;28;20435;-83
2022/08/27 00:22:41;;;;;;;8.93;2.73;;;20.90;99.90;;;;;;5015165;28;20467;-80
2022/08/27 00:25:10;;;;;;;5.40;2.80;;;20.90;99.90;;;;;;5021665;28;20535;-81
2022/08/27 00:27:37;;;;;;;9.77;2.43;;;20.90;99.90;;;;;;5032514;28;20502;-80
2022/08/27 00:30:06;;;;;;;7.70;2.50;;;20.90;99.90;;;;;;5031839;28;20554;-82
2022/08/27 00:32:33;;;;;;;9.53;2.83;;;20.80;99.90;;;;;;5027102;28;20461;-81
2022/08/27 00:35:00;;;;;;;9.43;3.50;;;20.80;99.90;;;;;;5017796;28;20473;-81
2022/08/27 00:37:27;;;;;;;6.10;2.80;;;20.70;99.90;;;;;;5027599;28;20451;-82
2022/08/27 00:39:55;;;;;;;5.83;2.57;;;20.60;99.90;;;;;;5031575;28;20440;-82
2022/08/27 00:42:22;;;;;;;6.20;2.80;;;20.60;99.90;;;;;;5007606;28;20477;-79
2022/08/27 00:44:49;;;;;;;6.40;2.70;;;20.60;99.90;;;;;;5010945;28;20520;-82
2022/08/27 00:47:19;;;;;;;7.77;3.00;;;20.50;99.90;;;;;;5023476;28;20469;-81
2022/08/27 00:49:50;;;;;;;9.57;2.73;;;20.50;99.90;;;;;;5016520;28;20521;-80
2022/08/27 00:52:21;;;;;;;3.30;1.80;;;20.50;99.90;;;;;;5021027;28;20500;-82
2022/08/27 00:54:49;;;;;;;6.10;2.30;;;20.40;99.90;;;;;;5016402;28;20506;-82
2022/08/27 00:57:18;;;;;;;5.83;2.23;;;20.50;99.90;;;;;;5032001;28;20464;-84
2022/08/27 00:59:45;;;;;;;5.30;2.90;;;20.50;99.90;;;;;;5021439;28;20450;-85
2022/08/27 01:02:18;;;;;;;9.30;2.33;;;20.40;99.90;;;;;;5020500;28;20452;-79
2022/08/27 01:04:49;;;;;;;10.53;3.20;;;20.50;99.90;;;;;;5007613;28;20440;-84
2022/08/27 01:07:17;;;;;;;6.10;3.03;;;20.40;99.90;;;;;;5017664;28;20448;-83
2022/08/27 01:09:47;;;;;;;7.87;2.70;;;20.40;99.90;;;;;;5017308;28;20449;-81
2022/08/27 01:12:14;;;;;;;5.80;2.93;;;20.40;99.90;;;;;;5021214;28;20492;-80
2022/08/27 01:14:45;;;;;;;14.93;2.80;;;20.30;99.90;;;;;;5030938;28;20441;-80
2022/08/27 01:17:14;;;;;;;5.47;2.40;;;20.40;99.90;;;;;;5028582;28;20467;-84
2022/08/27 01:19:50;;;;;;;5.10;2.60;;;20.40;99.90;;;;;;5032526;28;20451;-83
2022/08/27 01:22:41;;;;;;;7.13;2.10;;;20.40;99.90;;;;;;5020754;28;20446;-82
2022/08/27 01:25:14;;;;;;;6.57;2.03;;;20.40;99.90;;;;;;5028388;28;20446;-81
2022/08/27 01:27:43;;;;;;;10.20;2.53;;;20.40;99.90;;;;;;5027097;28;20515;-81
2022/08/27 01:30:13;;;;;;;7.53;3.57;;;20.40;99.90;;;;;;5007963;28;20484;-81
2022/08/27 01:32:42;;;;;;;9.47;3.00;;;20.50;99.90;;;;;;5013676;28;20575;-81
2022/08/27 01:35:12;;;;;;;6.17;2.77;;;20.50;99.90;;;;;;5003305;28;20485;-82
2022/08/27 01:37:41;;;;;;;5.50;2.03;;;20.50;99.90;;;;;;5005395;28;20532;-81
2022/08/27 01:40:11;;;;;;;6.67;2.23;;;20.50;99.90;;;;;;5005878;28;20500;-81
2022/08/27 01:42:40;;;;;;;8.43;2.10;;;20.50;99.90;;;;;;5010030;28;20516;-82
2022/08/27 01:45:10;;;;;;;12.23;2.70;;;20.50;99.90;;;;;;5009225;28;20463;-83
2022/08/27 01:47:38;;;;;;;6.37;3.23;;;20.50;99.90;;;;;;5012701;28;20554;-79
2022/08/27 01:50:07;;;;;;;8.60;2.67;;;20.50;99.90;;;;;;5007584;28;20514;-80
2022/08/27 01:52:34;;;;;;;9.30;3.03;;;20.50;99.90;;;;;;4996968;28;20518;-84
2022/08/27 01:55:01;;;;;;;7.00;1.97;;;20.40;99.90;;;;;;4995095;28;20486;-83
2022/08/27 01:57:30;;;;;;;8.77;2.33;;;20.40;99.90;;;;;;5017571;28;20474;-80
2022/08/27 01:59:57;;;;;;;5.70;2.63;;;20.40;99.90;;;;;;5005231;28;20466;-83
2022/08/27 02:02:25;;;;;;;8.93;2.27;;;20.40;99.90;;;;;;5021442;28;20457;-83
2022/08/27 02:04:51;;;;;;;5.27;2.80;;;20.40;99.90;;;;;;5005409;28;20443;-81
2022/08/27 02:07:18;;;;;;;12.83;2.63;;;20.50;99.90;;;;;;4996014;28;20470;-81
2022/08/27 02:09:45;;;;;;;8.33;2.30;;;20.50;99.90;;;;;;5006027;28;20964;-82
2022/08/27 02:12:12;;;;;;;5.80;2.93;;;20.50;99.90;;;;;;5008378;28;21035;-81
2022/08/27 02:14:40;;;;;;;8.97;3.33;;;20.40;99.90;;;;;;5011805;28;20455;-86
2022/08/27 02:17:07;;;;;;;7.30;3.07;;;20.40;99.90;;;;;;5027511;28;20480;-82
2022/08/27 02:19:35;;;;;;;7.33;2.40;;;20.50;99.90;;;;;;5010434;28;20460;-83
2022/08/27 02:22:01;;;;;;;4.07;2.50;;;20.40;99.90;;;;;;5023701;28;20444;-83
2022/08/27 02:24:28;;;;;;;8.33;2.80;;;20.40;99.90;;;;;;5019094;28;20450;-82
2022/08/27 02:26:56;;;;;;;7.07;2.03;;;20.30;99.90;;;;;;5019563;28;20473;-82
2022/08/27 02:29:24;;;;;;;12.57;2.03;;;20.30;99.90;;;;;;5013002;28;20454;-81
2022/08/27 02:31:53;;;;;;;6.10;1.83;;;20.30;99.90;;;;;;5015766;28;20555;-83
2022/08/27 02:34:19;;;;;;;17.97;3.33;;;20.40;99.90;;;;;;5013196;28;20468;-79
2022/08/27 02:36:47;;;;;;;4.33;1.90;;;20.30;99.90;;;;;;5018636;28;20480;-81
2022/08/27 02:39:13;;;;;;;3.97;2.23;;;20.40;99.90;;;;;;5000277;28;20448;-78
2022/08/27 02:41:40;;;;;;;3.43;2.27;;;20.40;99.90;;;;;;5018495;28;21000;-79
2022/08/27 02:44:07;;;;;;;7.30;2.63;;;20.30;99.90;;;;;;5016617;28;20449;-80
2022/08/27 02:46:34;;;;;;;5.23;2.93;;;20.20;99.90;;;;;;5011280;28;20866;-79
2022/08/27 02:49:02;;;;;;;5.47;1.70;;;20.20;99.90;;;;;;5018211;28;20466;-82
2022/08/27 02:51:30;;;;;;;8.37;2.53;;;20.20;99.90;;;;;;5006409;28;20491;-82
2022/08/27 02:53:57;;;;;;;10.60;4.27;;;20.20;99.90;;;;;;5011333;28;20531;-83
2022/08/27 02:56:24;;;;;;;10.60;2.47;;;20.30;99.90;;;;;;5007325;28;20465;-84
2022/08/27 02:58:51;;;;;;;5.80;2.53;;;20.30;99.90;;;;;;5000399;28;20525;-82
2022/08/27 03:01:18;;;;;;;7.13;3.37;;;20.30;99.90;;;;;;5004375;28;20463;-82
2022/08/27 03:03:45;;;;;;;8.07;2.40;;;20.20;99.90;;;;;;5011888;28;20544;-78
2022/08/27 03:06:13;;;;;;;7.10;3.07;;;20.20;99.90;;;;;;5007966;28;20483;-80
2022/08/27 03:08:40;;;;;;;7.20;1.87;;;20.20;99.90;;;;;;5022030;28;20436;-83
2022/08/27 03:11:07;;;;;;;8.67;2.47;;;20.20;99.90;;;;;;5017231;28;20482;-84
2022/08/27 03:13:37;;;;;;;9.90;2.50;;;20.30;99.90;;;;;;5008880;28;20443;-79
2022/08/27 03:16:04;;;;;;;5.10;1.83;;;20.10;99.90;;;;;;5008949;28;20547;-78
2022/08/27 03:18:31;;;;;;;7.90;3.00;;;20.20;99.90;;;;;;4996495;28;20540;-82
2022/08/27 03:20:58;;;;;;;10.03;2.37;;;20.20;99.90;;;;;;5004600;28;20458;-81
2022/08/27 03:23:31;;;;;;;10.93;3.47;;;20.20;99.90;;;;;;5006455;28;20447;-79
2022/08/27 03:26:00;;;;;;;8.20;2.80;;;20.20;99.90;;;;;;5006119;28;20489;-81
2022/08/27 03:28:30;;;;;;;6.87;2.03;;;20.30;99.90;;;;;;5008340;28;20485;-80
2022/08/27 03:31:00;;;;;;;12.43;4.47;;;20.30;99.90;;;;;;5007912;28;20511;-81
2022/08/27 03:33:27;;;;;;;4.67;2.33;;;20.40;99.90;;;;;;4997360;28;20508;-82
2022/08/27 03:35:54;;;;;;;11.00;2.30;;;20.30;99.90;;;;;;5018226;28;20532;-81
2022/08/27 03:38:22;;;;;;;6.53;2.37;;;20.20;99.90;;;;;;5021028;28;20455;-82
2022/08/27 03:40:51;;;;;;;8.33;3.00;;;20.20;99.90;;;;;;5019080;28;20476;-84
2022/08/27 03:43:20;;;;;;;14.57;5.00;;;20.40;99.90;;;;;;5028385;28;20450;-82
2022/08/27 03:45:49;;;;;;;8.50;2.90;;;20.30;99.90;;;;;;5020971;28;20436;-82
2022/08/27 03:48:17;;;;;;;4.33;2.47;;;20.30;99.90;;;;;;5015162;28;20443;-81
2022/08/27 03:50:46;;;;;;;6.10;2.93;;;20.40;99.90;;;;;;5007321;28;20495;-80
2022/08/27 03:53:14;;;;;;;9.03;2.70;;;20.30;99.90;;;;;;4998809;28;20484;-80
2022/08/27 03:55:41;;;;;;;9.53;3.17;;;20.30;99.90;;;;;;5022343;28;20454;-81
2022/08/27 03:58:10;;;;;;;7.30;2.60;;;20.20;99.90;;;;;;5006349;28;20451;-79
2022/08/27 04:00:37;;;;;;;4.07;2.43;;;20.20;99.90;;;;;;5004155;28;20468;-80
2022/08/27 04:03:05;;;;;;;6.47;2.53;;;20.30;99.90;;;;;;5006029;28;20506;-80
2022/08/27 04:05:32;;;;;;;5.20;2.40;;;20.30;99.90;;;;;;5000822;28;20890;-78
2022/08/27 04:07:59;;;;;;;4.53;2.40;;;20.40;99.90;;;;;;5005718;28;20532;-78
2022/08/27 04:10:27;;;;;;;10.60;2.60;;;20.30;99.90;;;;;;5012811;28;20519;-83
2022/08/27 04:12:54;;;;;;;10.17;2.67;;;20.30;99.90;;;;;;5016974;28;20897;-81
2022/08/27 04:15:23;;;;;;;9.30;2.20;;;20.30;99.90;;;;;;5030503;28;20481;-82
2022/08/27 04:17:50;;;;;;;3.73;2.10;;;20.30;99.90;;;;;;5030740;28;20528;-80
2022/08/27 04:20:17;;;;;;;7.33;2.70;;;20.30;99.90;;;;;;5019914;28;20483;-79
2022/08/27 04:22:44;;;;;;;10.20;2.40;;;20.30;99.90;;;;;;5015109;28;20448;-79
2022/08/27 04:25:11;;;;;;;11.07;2.97;;;20.20;99.90;;;;;;4993685;28;20528;-78
2022/08/27 04:27:38;;;;;;;8.27;2.73;;;20.30;99.90;;;;;;5005231;28;20489;-79
2022/08/27 04:30:08;;;;;;;8.23;2.53;;;20.30;99.90;;;;;;5012232;28;20449;-82
2022/08/27 04:32:36;;;;;;;7.20;2.70;;;20.30;99.90;;;;;;5003679;28;20516;-79
2022/08/27 04:35:04;;;;;;;8.93;2.53;;;20.30;99.90;;;;;;4996131;28;20464;-80
2022/08/27 04:37:31;;;;;;;6.87;2.77;;;20.30;99.90;;;;;;5021210;28;20504;-79
2022/08/27 04:39:59;;;;;;;9.80;2.63;;;20.30;99.90;;;;;;5008758;28;20466;-81
2022/08/27 04:42:26;;;;;;;6.83;2.10;;;20.40;99.90;;;;;;5003707;28;20460;-81
2022/08/27 04:44:53;;;;;;;8.70;2.90;;;20.40;99.90;;;;;;5011078;28;20441;-80
2022/08/27 04:47:20;;;;;;;9.17;2.43;;;20.40;99.90;;;;;;5003331;28;20522;-78
2022/08/27 04:49:48;;;;;;;4.70;2.47;;;20.30;99.90;;;;;;4998209;28;20506;-80
2022/08/27 04:52:15;;;;;;;6.40;2.50;;;20.40;99.90;;;;;;4994073;28;20488;-80
2022/08/27 04:54:42;;;;;;;5.93;2.80;;;20.40;99.90;;;;;;4990231;28;20447;-80
2022/08/27 04:57:09;;;;;;;12.63;3.20;;;20.30;99.90;;;;;;4995494;28;20538;-79
2022/08/27 04:59:37;;;;;;;7.40;3.93;;;20.40;99.90;;;;;;5003082;28;20484;-79
2022/08/27 05:02:08;;;;;;;3.90;2.63;;;20.30;99.90;;;;;;5004236;28;20448;-80
2022/08/27 05:04:50;;;;;;;5.40;2.57;;;20.30;99.90;;;;;;5000998;28;20459;-84
2022/08/27 05:07:19;;;;;;;8.63;2.80;;;20.30;99.90;;;;;;5006383;28;20502;-81
2022/08/27 05:09:46;;;;;;;10.20;2.77;;;20.30;99.90;;;;;;5002368;28;20466;-80
2022/08/27 05:12:13;;;;;;;12.13;2.33;;;20.30;99.90;;;;;;5001872;28;20519;-82
2022/08/27 05:14:40;;;;;;;4.33;2.23;;;20.30;99.90;;;;;;5014530;28;20514;-82
2022/08/27 05:17:06;;;;;;;8.90;4.70;;;20.20;99.90;;;;;;5012613;28;20557;-80
2022/08/27 05:19:33;;;;;;;9.20;2.30;;;20.20;99.90;;;;;;5013514;28;20513;-81
2022/08/27 05:22:00;;;;;;;7.60;2.50;;;20.30;99.90;;;;;;5010796;28;20473;-80
2022/08/27 05:24:29;;;;;;;6.60;3.00;;;20.30;99.90;;;;;;5009683;28;20451;-80
2022/08/27 05:26:56;;;;;;;8.80;3.00;;;20.30;99.90;;;;;;5016990;28;20470;-79
2022/08/27 05:29:23;;;;;;;6.10;3.10;;;20.40;99.90;;;;;;5032717;28;20449;-82
2022/08/27 05:31:53;;;;;;;7.27;3.10;;;20.30;99.90;;;;;;5017078;28;20439;-84
2022/08/27 05:34:21;;;;;;;10.10;3.60;;;20.30;99.90;;;;;;5019182;28;20446;-81
2022/08/27 05:36:48;;;;;;;7.60;2.93;;;20.30;99.90;;;;;;4999835;28;20507;-81
2022/08/27 05:39:15;;;;;;;7.97;3.87;;;20.40;99.90;;;;;;4994672;28;20480;-83
2022/08/27 05:41:43;;;;;;;7.33;2.50;;;20.40;99.90;;;;;;5015294;28;20440;-83
2022/08/27 05:44:11;;;;;;;13.80;3.33;;;20.40;99.90;;;;;;5029235;28;20482;-82
2022/08/27 05:46:39;;;;;;;10.13;3.00;;;20.50;99.90;;;;;;5008259;28;20506;-84
2022/08/27 05:49:06;;;;;;;6.30;2.70;;;20.60;99.90;;;;;;5005100;28;20449;-83
2022/08/27 05:51:36;;;;;;;5.50;2.23;;;20.80;99.90;;;;;;5002719;28;20539;-82
2022/08/27 05:54:05;;;;;;;3.60;2.57;;;20.90;99.90;;;;;;5013290;28;20496;-83
2022/08/27 05:56:34;;;;;;;5.03;2.00;;;21.00;99.90;;;;;;5001195;28;20515;-83
2022/08/27 06:01:49;;;;;;;9.73;2.67;;;21.10;99.90;;;;;;5023166;28;20427;-82
2022/08/27 06:04:19;;;;;;;5.93;2.53;;;21.10;99.90;;;;;;5007164;28;20477;-80
2022/08/27 06:06:48;;;;;;;15.90;2.63;;;21.10;99.90;;;;;;5002303;28;20472;-82
2022/08/27 06:09:18;;;;;;;5.70;1.93;;;21.20;99.90;;;;;;5004314;28;20479;-83
2022/08/27 06:11:45;;;;;;;10.80;2.20;;;21.20;99.90;;;;;;4998553;28;20448;-83
2022/08/27 06:14:13;;;;;;;6.03;2.93;;;21.30;99.90;;;;;;5009097;28;20483;-85
2022/08/27 06:16:41;;;;;;;16.27;2.83;;;21.30;99.90;;;;;;5010949;28;20487;-83
2022/08/27 06:19:10;;;;;;;7.97;2.73;;;21.30;99.90;;;;;;5014997;28;20435;-83
2022/08/27 06:21:38;;;;;;;4.40;2.27;;;21.30;99.90;;;;;;5015120;28;20449;-84
2022/08/27 06:24:11;;;;;;;9.53;3.00;;;21.40;99.90;;;;;;5015301;28;20436;-82
2022/08/27 06:26:39;;;;;;;5.87;2.40;;;21.30;99.90;;;;;;5004550;28;20587;-84
2022/08/27 06:29:10;;;;;;;10.03;2.53;;;21.30;99.90;;;;;;4997662;28;20921;-83
2022/08/27 06:31:39;;;;;;;9.43;2.27;;;21.30;99.90;;;;;;5008495;28;20475;-84
2022/08/27 06:34:08;;;;;;;6.63;1.80;;;21.30;99.90;;;;;;5009896;28;20492;-84
2022/08/27 06:36:38;;;;;;;6.60;2.57;;;21.30;99.90;;;;;;4998397;28;20475;-82
2022/08/27 06:39:06;;;;;;;8.70;2.50;;;21.30;99.90;;;;;;4996740;28;20453;-83
2022/08/27 06:41:34;;;;;;;7.30;3.17;;;21.20;99.90;;;;;;4998263;28;20457;-82
2022/08/27 06:44:01;;;;;;;5.73;2.30;;;21.20;99.90;;;;;;5011803;28;20467;-83
2022/08/27 06:46:29;;;;;;;9.63;2.73;;;21.30;99.90;;;;;;5007629;28;20476;-82
2022/08/27 06:49:01;;;;;;;10.37;3.10;;;21.30;99.90;;;;;;5002966;28;20444;-84
2022/08/27 06:51:30;;;;;;;6.40;2.33;;;21.30;99.90;;;;;;5012043;28;20538;-83
2022/08/27 06:54:00;;;;;;;5.43;1.80;;;21.40;99.90;;;;;;5015915;28;20488;-81
2022/08/27 06:56:27;;;;;;;14.50;2.20;;;21.40;99.90;;;;;;5008174;28;20467;-80
2022/08/27 06:58:56;;;;;;;4.60;2.07;;;21.50;99.90;;;;;;5000203;28;20452;-82
2022/08/27 07:01:25;;;;;;;5.93;2.20;;;21.50;99.90;;;;;;4995273;28;20492;-80
2022/08/27 07:03:56;;;;;;;8.47;2.77;;;21.50;99.90;;;;;;5009728;28;20458;-83
2022/08/27 07:06:26;;;;;;;9.53;2.57;;;21.60;99.90;;;;;;4997161;28;20903;-83
2022/08/27 07:08:53;;;;;;;6.97;3.10;;;21.60;99.90;;;;;;4999065;28;20459;-84
2022/08/27 07:11:21;;;;;;;4.27;2.07;;;21.60;99.90;;;;;;5007525;28;20449;-84
2022/08/27 07:13:49;;;;;;;9.70;2.73;;;21.70;99.90;;;;;;5003478;28;20539;-82
2022/08/27 07:16:19;;;;;;;6.63;3.37;;;21.80;99.90;;;;;;5003880;28;20472;-82
2022/08/27 07:18:46;;;;;;;6.77;4.33;;;21.90;99.90;;;;;;5016161;28;20446;-81
2022/08/27 07:21:18;;;;;;;5.50;2.80;;;22.00;99.90;;;;;;5011098;28;20459;-81
2022/08/27 07:23:49;;;;;;;8.63;2.80;;;22.00;99.90;;;;;;5010660;28;20467;-83
2022/08/27 07:26:18;;;;;;;6.83;2.27;;;22.10;99.90;;;;;;5020363;28;20485;-82
2022/08/27 07:28:48;;;;;;;5.60;2.53;;;22.20;99.90;;;;;;5003120;28;20535;-86
2022/08/27 07:31:17;;;;;;;8.20;3.70;;;22.20;99.90;;;;;;4994144;28;20431;-83
2022/08/27 07:33:47;;;;;;;7.50;2.90;;;22.40;99.90;;;;;;4998825;28;20457;-82
2022/08/27 07:36:14;;;;;;;15.63;5.10;;;22.50;99.90;;;;;;5023817;28;20463;-82
2022/08/27 07:38:41;;;;;;;5.90;2.80;;;22.70;99.90;;;;;;5025368;28;20666;-85
2022/08/27 07:41:12;;;;;;;6.90;2.80;;;22.70;99.90;;;;;;5011750;28;20448;-81
2022/08/27 07:46:25;;;;;;;9.60;2.40;;;22.90;99.90;;;;;;5032191;28;20469;-83
2022/08/27 07:48:54;;;;;;;6.73;2.47;;;23.00;99.90;;;;;;5014259;28;20500;-82
2022/08/27 07:51:23;;;;;;;4.53;1.67;;;23.20;99.90;;;;;;5025097;28;20493;-81
2022/08/27 07:53:51;;;;;;;8.80;3.10;;;23.20;99.90;;;;;;5024182;28;20561;-84
2022/08/27 07:56:23;;;;;;;3.70;1.87;;;23.20;99.90;;;;;;5011715;28;20901;-84
2022/08/27 07:58:51;;;;;;;7.17;2.70;;;23.30;99.90;;;;;;5024420;28;20444;-85
2022/08/27 08:01:20;;;;;;;13.20;2.80;;;23.30;99.90;;;;;;5028994;28;20447;-83
2022/08/27 08:03:47;;;;;;;9.57;2.60;;;23.30;99.90;;;;;;5039524;22;20898;-70
2022/08/27 08:06:16;;;;;;;7.70;2.90;;;23.30;99.90;;;;;;5019473;28;20969;-70
2022/08/27 08:08:45;;;;;;;9.10;2.83;;;23.30;99.90;;;;;;5012488;28;20451;-77
2022/08/27 08:11:14;;;;;;;10.23;2.40;;;23.20;99.90;;;;;;5017156;28;20451;-70
2022/08/27 08:13:43;;;;;;;15.03;3.37;;;23.10;99.90;;;;;;5018716;28;20489;-71
2022/08/27 08:16:11;;;;;;;6.60;2.53;;;23.00;99.90;;;;;;5018359;28;20526;-70
2022/08/27 08:18:39;;;;;;;8.23;2.50;;;22.90;99.90;;;;;;5018594;28;20935;-69
2022/08/27 08:21:08;;;;;;;11.73;3.00;;;22.80;99.90;;;;;;5016048;28;20451;-70
2022/08/27 08:23:37;;;;;;;11.20;3.07;;;22.80;99.90;;;;;;5018577;28;20999;-70
2022/08/27 08:26:04;;;;;;;10.57;2.53;;;22.80;99.90;;;;;;5016519;28;20463;-70
2022/08/27 08:28:31;;;;;;;8.70;2.53;;;22.60;99.90;;;;;;5022290;28;20475;-70
2022/08/27 08:30:59;;;;;;;8.27;2.93;;;22.60;99.90;;;;;;5009569;28;20866;-69
2022/08/27 08:33:30;;;;;;;7.10;2.43;;;22.50;99.90;;;;;;5015522;28;20498;-73
2022/08/27 08:36:04;;;;;;;15.83;2.80;;;22.50;99.90;;;;;;5011478;28;20451;-69
2022/08/27 08:38:31;;;;;;;9.63;2.90;;;22.50;99.90;;;;;;5015601;28;20829;-70
2022/08/27 08:40:58;;;;;;;15.13;5.10;;;22.50;99.90;;;;;;5013840;28;20927;-70
2022/08/27 08:43:31;;;;;;;9.50;2.90;;;22.50;99.90;;;;;;5014905;28;20460;-70
2022/08/27 08:46:08;;;;;;;7.53;2.97;;;22.50;99.90;;;;;;5012331;28;20502;-70
2022/08/27 08:48:37;;;;;;;12.47;3.50;;;22.50;99.90;;;;;;5030594;28;20848;-70
2022/08/27 08:51:10;;;;;;;6.13;2.53;;;22.50;99.90;;;;;;5011950;28;20450;-70
2022/08/27 08:53:44;;;;;;;6.43;2.40;;;22.50;99.90;;;;;;5014824;28;20532;-73
2022/08/27 08:56:17;;;;;;;8.07;3.10;;;22.50;99.90;;;;;;5013882;28;20506;-71
2022/08/27 08:58:48;;;;;;;10.43;3.20;;;22.60;99.90;;;;;;5014339;28;20543;-69
2022/08/27 09:01:21;;;;;;;8.20;2.80;;;22.60;99.90;;;;;;5009975;28;20445;-69
2022/08/27 09:03:53;;;;;;;10.83;3.63;;;22.70;99.90;;;;;;5005819;28;20474;-71
2022/08/27 09:06:29;;;;;;;7.33;2.43;;;22.70;99.90;;;;;;5010980;28;20445;-72
2022/08/27 09:09:03;;;;;;;11.90;2.57;;;22.70;99.90;;;;;;5009452;28;20887;-71
2022/08/27 09:11:38;;;;;;;6.70;2.67;;;22.70;99.90;;;;;;5014351;28;20454;-72
2022/08/27 09:14:16;;;;;;;9.67;3.07;;;22.60;99.90;;;;;;5010997;28;20483;-71
2022/08/27 09:16:44;;;;;;;10.53;3.20;;;22.60;99.90;;;;;;5018609;28;20440;-69
2022/08/27 09:19:11;;;;;;;8.80;2.60;;;22.70;99.90;;;;;;5014402;28;20454;-69
2022/08/27 09:21:51;;;;;;;8.27;2.30;;;22.70;99.90;;;;;;5011664;28;20960;-72
2022/08/27 09:24:26;;;;;;;8.60;2.30;;;22.70;99.90;;;;;;5013160;28;20470;-71
2022/08/27 09:26:54;;;;;;;9.83;1.90;;;22.80;99.90;;;;;;5015727;28;20475;-70
2022/08/27 09:29:27;;;;;;;12.50;2.77;;;22.80;99.90;;;;;;5025124;28;20483;-71
2022/08/27 09:31:58;;;;;;;7.43;2.50;;;22.80;99.90;;;;;;5017632;28;20830;-69
2022/08/27 09:34:27;;;;;;;11.00;3.10;;;22.90;99.90;;;;;;5020047;28;20490;-70
2022/08/27 09:37:00;;;;;;;3.20;2.30;;;22.90;99.90;;;;;;5014754;28;20922;-69
2022/08/27 09:39:33;;;;;;;9.20;2.53;;;22.90;99.90;;;;;;5012116;28;20519;-71
2022/08/27 09:42:03;;;;;;;11.40;3.57;;;23.00;99.90;;;;;;5008137;28;20879;-70
2022/08/27 09:44:31;;;;;;;13.37;2.20;;;23.10;99.90;;;;;;5016451;28;20475;-70
2022/08/27 09:47:02;;;;;;;6.00;2.43;;;23.10;99.90;;;;;;5014215;28;20531;-70
2022/08/27 09:49:33;;;;;;;12.37;3.07;;;23.20;99.90;;;;;;5023143;28;20486;-71
2022/08/27 09:52:00;;;;;;;10.50;2.60;;;23.20;99.90;;;;;;5012960;28;20527;-72
2022/08/27 09:54:39;;;;;;;8.90;2.40;;;23.10;99.90;;;;;;5020854;28;20499;-70
2022/08/27 09:57:07;;;;;;;6.73;2.43;;;23.30;99.90;;;;;;5014246;28;20542;-70
2022/08/27 09:59:36;;;;;;;12.97;2.93;;;23.50;99.90;;;;;;5015697;28;20807;-70
2022/08/27 10:02:13;;;;;;;8.90;3.73;;;23.70;99.90;;;;;;5013022;28;20480;-71
2022/08/27 10:04:43;;;;;;;8.60;2.40;;;23.90;99.90;;;;;;5015713;28;20468;-71
2022/08/27 10:07:24;;;;;;;12.37;3.50;;;24.10;99.90;;;;;;5012966;28;20455;-69
2022/08/27 10:09:56;;;;;;;6.80;3.33;;;24.30;99.90;;;;;;5000051;28;20489;-71
2022/08/27 10:12:29;;;;;;;8.60;3.07;;;24.60;99.90;;;;;;5011940;28;20452;-71
2022/08/27 10:15:00;;;;;;;7.90;2.47;;;24.60;99.90;;;;;;5022321;28;20493;-71
2022/08/27 10:17:39;;;;;;;7.13;2.43;;;24.80;98.90;;;;;;5024810;28;20447;-70
2022/08/27 10:20:17;;;;;;;7.93;2.40;;;24.80;98.60;;;;;;5003755;28;20458;-69
2022/08/27 10:23:04;;;;;;;8.30;2.30;;;24.90;98.40;;;;;;5015780;28;20530;-70
2022/08/27 10:25:40;;;;;;;6.03;2.40;;;25.00;98.00;;;;;;5015679;28;20485;-71
2022/08/27 10:28:18;;;;;;;7.30;2.70;;;25.20;97.50;;;;;;5028134;28;20478;-72
2022/08/27 10:30:58;;;;;;;8.47;2.27;;;25.20;97.10;;;;;;5013282;28;20881;-72
2022/08/27 10:33:36;;;;;;;12.00;2.73;;;25.30;96.20;;;;;;5011174;28;20867;-71
2022/08/27 10:36:10;;;;;;;5.03;2.33;;;25.40;95.60;;;;;;5006246;28;20475;-71
2022/08/27 10:38:40;;;;;;;8.33;2.20;;;25.60;95.20;;;;;;5011360;28;20489;-71
2022/08/27 10:41:16;;;;;;;13.33;2.57;;;25.80;94.00;;;;;;5012466;28;20511;-70
2022/08/27 10:44:16;;;;;;;6.27;2.00;;;26.00;93.40;;;;;;5003885;28;20471;-69
2022/08/27 10:47:04;;;;;;;6.70;2.13;;;26.30;92.90;;;;;;5001590;28;20455;-70
2022/08/27 10:49:45;;;;;;;6.90;2.67;;;26.30;92.20;;;;;;5009569;28;20836;-72
2022/08/27 10:52:20;;;;;;;11.60;6.40;;;26.10;92.30;;;;;;5011240;28;20444;-71
2022/08/27 10:54:53;;;;;;;7.17;2.37;;;26.20;92.00;;;;;;5006374;28;20487;-70
2022/08/27 10:57:29;;;;;;;9.53;2.67;;;26.30;92.00;;;;;;5011583;28;20507;-71
2022/08/27 11:00:05;;;;;;;10.23;6.00;;;26.30;92.40;;;;;;5006117;28;20497;-71
2022/08/27 11:02:37;;;;;;;5.57;2.30;;;26.40;91.70;;;;;;5009133;28;20827;-72
2022/08/27 11:05:15;;;;;;;5.73;2.17;;;26.40;92.20;;;;;;5008126;28;20466;-71
2022/08/27 11:07:46;;;;;;;7.73;2.00;;;26.60;91.70;;;;;;5011487;28;20444;-71
2022/08/27 11:10:19;;;;;;;6.00;3.03;;;26.70;91.90;;;;;;5009175;28;20454;-71
2022/08/27 11:12:49;;;;;;;9.10;2.13;;;26.70;91.30;;;;;;5006303;28;20530;-71
2022/08/27 11:15:24;;;;;;;5.87;1.83;;;26.70;91.60;;;;;;5013187;28;20479;-70
2022/08/27 11:17:56;;;;;;;10.80;2.50;;;26.60;91.40;;;;;;5015232;28;20479;-70
2022/08/27 11:20:31;;;;;;;10.17;2.40;;;26.50;91.80;;;;;;5009289;28;20476;-71
2022/08/27 11:23:04;;;;;;;8.23;2.47;;;26.30;91.80;;;;;;5013621;28;20463;-70
2022/08/27 11:25:43;;;;;;;8.30;3.40;;;26.20;92.30;;;;;;5012875;28;20446;-71
2022/08/27 11:28:11;;;;;;;8.57;2.37;;;26.10;92.40;;;;;;5018305;28;20487;-71
2022/08/27 11:30:49;;;;;;;10.73;2.17;;;26.30;92.40;;;;;;4993557;28;20455;-69
2022/08/27 11:33:23;;;;;;;10.03;2.47;;;26.30;92.20;;;;;;4996447;28;20560;-70
2022/08/27 11:36:14;;;;;;;7.90;2.37;;;26.40;91.80;;;;;;5011938;28;21022;-71
2022/08/27 11:38:53;;;;;;;3.07;2.03;;;26.40;91.90;;;;;;5011462;28;20447;-71
2022/08/27 11:41:50;;;;;;;10.67;3.40;;;26.40;92.10;;;;;;5011521;28;20452;-72
2022/08/27 11:44:21;;;;;;;8.70;3.10;;;26.50;91.50;;;;;;5011691;28;20468;-71
2022/08/27 11:46:51;;;;;;;7.80;1.90;;;26.50;91.20;;;;;;5005783;28;20450;-70
2022/08/27 11:49:28;;;;;;;7.33;2.20;;;26.40;91.60;;;;;;5013100;28;20974;-70
2022/08/27 11:52:05;;;;;;;6.97;2.63;;;26.40;91.50;;;;;;5011982;28;20807;-71
2022/08/27 11:54:47;;;;;;;6.20;1.70;;;26.40;91.40;;;;;;5010142;28;20494;-71
2022/08/27 11:57:16;;;;;;;5.53;1.73;;;26.20;91.30;;;;;;5008959;28;20502;-70
2022/08/27 11:59:43;;;;;;;9.17;2.30;;;26.20;91.30;;;;;;5009113;28;20828;-70
2022/08/27 12:02:20;;;;;;;8.90;2.40;;;26.20;91.20;;;;;;5007385;28;20462;-70
2022/08/27 12:04:47;;;;;;;9.50;2.37;;;26.20;91.60;;;;;;5009881;28;20505;-72
2022/08/27 12:07:35;;;;;;;9.97;2.53;;;26.20;91.30;;;;;;5006022;28;20913;-72
2022/08/27 12:10:28;;;;;;;5.80;2.00;;;26.10;91.20;;;;;;5017196;28;20447;-68
2022/08/27 12:13:04;;;;;;;13.63;2.63;;;26.00;91.40;;;;;;5010723;28;20452;-71
2022/08/27 12:15:48;;;;;;;6.00;2.27;;;26.10;91.60;;;;;;5011110;28;20487;-69
2022/08/27 12:18:41;;;;;;;5.90;2.37;;;26.30;91.30;;;;;;5010387;28;20545;-69
2022/08/27 12:21:20;;;;;;;5.10;2.03;;;26.40;91.30;;;;;;5008295;28;20471;-71
2022/08/27 12:24:05;;;;;;;6.27;1.80;;;26.30;90.80;;;;;;5011825;28;22007;-73
2022/08/27 12:26:34;;;;;;;6.70;2.53;;;26.10;91.30;;;;;;5015885;28;20447;-70
2022/08/27 12:29:27;;;;;;;6.97;1.97;;;26.00;91.40;;;;;;5021623;28;20451;-70
2022/08/27 12:32:03;;;;;;;5.70;1.80;;;25.90;91.50;;;;;;5011857;28;20814;-70
2022/08/27 12:34:41;;;;;;;7.73;2.97;;;25.90;91.30;;;;;;5014144;28;20578;-70
2022/08/27 12:37:08;;;;;;;4.50;1.90;;;26.00;91.60;;;;;;5014443;28;20527;-71
2022/08/27 12:39:40;;;;;;;8.40;2.00;;;25.90;91.40;;;;;;5015750;28;20808;-70
2022/08/27 12:42:13;;;;;;;8.10;2.53;;;25.80;91.10;;;;;;5015048;28;20471;-70
2022/08/27 12:44:40;;;;;;;6.07;2.20;;;25.70;91.60;;;;;;5013795;28;20810;-72
2022/08/27 12:47:12;;;;;;;4.40;2.07;;;25.70;91.30;;;;;;5011546;28;20534;-72
2022/08/27 12:49:44;;;;;;;12.40;2.73;;;25.90;91.20;;;;;;5013152;28;20957;-69
2022/08/27 12:52:26;;;;;;;6.23;2.33;;;26.00;91.20;;;;;;5014604;28;20550;-71
2022/08/27 12:55:08;;;;;;;8.10;2.10;;;26.20;90.80;;;;;;5014484;28;20545;-70
2022/08/27 12:57:40;;;;;;;7.23;2.73;;;26.50;91.00;;;;;;5014076;28;20456;-70
2022/08/27 13:00:13;;;;;;;6.73;2.00;;;26.60;90.30;;;;;;5008090;28;20444;-71
2022/08/27 13:03:03;;;;;;;6.37;2.40;;;26.30;90.40;;;;;;5015480;28;20486;-71
2022/08/27 13:05:37;;;;;;;6.23;2.33;;;26.00;90.70;;;;;;5012880;28;20454;-72
2022/08/27 13:08:04;;;;;;;8.40;2.50;;;25.80;90.90;;;;;;5027745;28;20479;-72